METAR Data
IDs: Format: Raw Decoded Include TAF

Data at: 0202 UTC 10 Dec 2022

METAR for:KEDJ (Bellefontaine Rgnl, OH, US)
Text:KEDJ 100155Z AUTO 07008KT 8SM 03/03 A3014 RMK A01
Temperature: 3.0°C ( 37°F)
Dewpoint: 3.0°C ( 37°F) [RH = 100%]
Pressure (altimeter):30.14 inches Hg (1020.7 mb)
Winds:from the ENE (70 degrees) at 9 MPH (8 knots; 4.1 m/s)
Visibility: 8 sm ( 13 km)
QC Flag:automated observation with no human augmentation